sensor_id;sensor_type;location;lat;lon;timestamp;P1;durP1;ratioP1;P2;durP2;ratioP2
11893;SDS011;6006;49.696;8.662;2023-11-21T00:00:41;0.80;;;0.73;;
11893;SDS011;6006;49.696;8.662;2023-11-21T00:03:08;0.60;;;0.60;;
11893;SDS011;6006;49.696;8.662;2023-11-21T00:05:38;0.80;;;0.70;;
11893;SDS011;6006;49.696;8.662;2023-11-21T00:08:06;2.17;;;0.83;;
11893;SDS011;6006;49.696;8.662;2023-11-21T00:10:33;0.77;;;0.77;;
11893;SDS011;6006;49.696;8.662;2023-11-21T00:13:03;3.70;;;0.80;;
11893;SDS011;6006;49.696;8.662;2023-11-21T00:15:30;1.90;;;1.10;;
11893;SDS011;6006;49.696;8.662;2023-11-21T00:17:57;1.30;;;1.10;;
11893;SDS011;6006;49.696;8.662;2023-11-21T00:20:23;1.50;;;1.00;;
11893;SDS011;6006;49.696;8.662;2023-11-21T00:22:52;1.27;;;0.80;;
11893;SDS011;6006;49.696;8.662;2023-11-21T00:25:19;3.00;;;1.13;;
11893;SDS011;6006;49.696;8.662;2023-11-21T00:27:45;1.53;;;1.10;;
11893;SDS011;6006;49.696;8.662;2023-11-21T00:30:13;1.03;;;1.00;;
11893;SDS011;6006;49.696;8.662;2023-11-21T00:32:40;4.03;;;1.30;;
11893;SDS011;6006;49.696;8.662;2023-11-21T00:35:08;2.30;;;1.50;;
11893;SDS011;6006;49.696;8.662;2023-11-21T00:37:35;1.60;;;1.33;;
11893;SDS011;6006;49.696;8.662;2023-11-21T00:40:06;2.63;;;1.20;;
11893;SDS011;6006;49.696;8.662;2023-11-21T00:42:34;1.90;;;1.53;;
11893;SDS011;6006;49.696;8.662;2023-11-21T00:45:01;1.50;;;1.40;;
11893;SDS011;6006;49.696;8.662;2023-11-21T00:47:28;2.57;;;1.73;;
11893;SDS011;6006;49.696;8.662;2023-11-21T00:49:55;3.53;;;1.90;;
11893;SDS011;6006;49.696;8.662;2023-11-21T00:52:22;3.83;;;2.27;;
11893;SDS011;6006;49.696;8.662;2023-11-21T00:54:49;3.47;;;2.33;;
11893;SDS011;6006;49.696;8.662;2023-11-21T00:57:18;2.00;;;1.90;;
11893;SDS011;6006;49.696;8.662;2023-11-21T00:59:45;2.07;;;1.70;;
11893;SDS011;6006;49.696;8.662;2023-11-21T01:02:11;4.37;;;2.50;;
11893;SDS011;6006;49.696;8.662;2023-11-21T01:04:38;2.23;;;2.03;;
11893;SDS011;6006;49.696;8.662;2023-11-21T01:07:05;2.00;;;1.90;;
11893;SDS011;6006;49.696;8.662;2023-11-21T01:09:32;4.00;;;1.97;;
11893;SDS011;6006;49.696;8.662;2023-11-21T01:11:59;5.60;;;2.33;;
11893;SDS011;6006;49.696;8.662;2023-11-21T01:14:27;5.47;;;1.93;;
11893;SDS011;6006;49.696;8.662;2023-11-21T01:16:54;3.90;;;2.17;;
11893;SDS011;6006;49.696;8.662;2023-11-21T01:19:21;3.40;;;2.17;;
11893;SDS011;6006;49.696;8.662;2023-11-21T01:21:48;3.00;;;2.07;;
11893;SDS011;6006;49.696;8.662;2023-11-21T01:24:17;4.40;;;2.27;;
11893;SDS011;6006;49.696;8.662;2023-11-21T01:26:43;4.97;;;2.17;;
11893;SDS011;6006;49.696;8.662;2023-11-21T01:29:11;3.37;;;1.97;;
11893;SDS011;6006;49.696;8.662;2023-11-21T01:31:40;3.67;;;1.90;;
11893;SDS011;6006;49.696;8.662;2023-11-21T01:34:06;5.17;;;2.90;;
11893;SDS011;6006;49.696;8.662;2023-11-21T01:36:33;4.47;;;2.37;;
11893;SDS011;6006;49.696;8.662;2023-11-21T01:39:00;3.47;;;2.17;;
11893;SDS011;6006;49.696;8.662;2023-11-21T01:41:27;2.13;;;1.97;;
11893;SDS011;6006;49.696;8.662;2023-11-21T01:43:56;2.07;;;1.87;;
11893;SDS011;6006;49.696;8.662;2023-11-21T01:46:23;1.63;;;1.53;;
11893;SDS011;6006;49.696;8.662;2023-11-21T01:48:51;2.80;;;2.07;;
11893;SDS011;6006;49.696;8.662;2023-11-21T01:51:20;3.10;;;2.00;;
11893;SDS011;6006;49.696;8.662;2023-11-21T01:53:47;2.03;;;1.93;;
11893;SDS011;6006;49.696;8.662;2023-11-21T01:56:14;2.57;;;1.77;;
11893;SDS011;6006;49.696;8.662;2023-11-21T01:58:41;4.10;;;2.03;;
11893;SDS011;6006;49.696;8.662;2023-11-21T02:01:08;1.90;;;1.77;;
11893;SDS011;6006;49.696;8.662;2023-11-21T02:03:36;3.00;;;2.03;;
11893;SDS011;6006;49.696;8.662;2023-11-21T02:06:04;1.83;;;1.70;;
11893;SDS011;6006;49.696;8.662;2023-11-21T02:08:32;2.03;;;1.90;;
11893;SDS011;6006;49.696;8.662;2023-11-21T02:10:59;3.10;;;2.10;;
11893;SDS011;6006;49.696;8.662;2023-11-21T02:13:27;5.97;;;2.40;;
11893;SDS011;6006;49.696;8.662;2023-11-21T02:15:54;4.20;;;2.33;;
11893;SDS011;6006;49.696;8.662;2023-11-21T02:18:21;4.37;;;2.20;;
11893;SDS011;6006;49.696;8.662;2023-11-21T02:20:48;2.13;;;1.93;;
11893;SDS011;6006;49.696;8.662;2023-11-21T02:23:16;3.40;;;2.50;;
11893;SDS011;6006;49.696;8.662;2023-11-21T02:25:43;3.30;;;2.37;;
11893;SDS011;6006;49.696;8.662;2023-11-21T02:28:10;6.07;;;2.00;;
11893;SDS011;6006;49.696;8.662;2023-11-21T02:30:37;2.60;;;1.90;;
11893;SDS011;6006;49.696;8.662;2023-11-21T02:33:04;7.83;;;2.67;;
11893;SDS011;6006;49.696;8.662;2023-11-21T02:35:32;4.13;;;2.20;;
11893;SDS011;6006;49.696;8.662;2023-11-21T02:38:00;2.57;;;2.27;;
11893;SDS011;6006;49.696;8.662;2023-11-21T02:40:28;2.17;;;1.67;;
11893;SDS011;6006;49.696;8.662;2023-11-21T02:42:55;1.80;;;1.37;;
11893;SDS011;6006;49.696;8.662;2023-11-21T02:45:24;2.17;;;1.90;;
11893;SDS011;6006;49.696;8.662;2023-11-21T02:47:51;2.27;;;1.83;;
11893;SDS011;6006;49.696;8.662;2023-11-21T02:50:21;2.00;;;1.30;;
11893;SDS011;6006;49.696;8.662;2023-11-21T02:52:48;2.60;;;2.10;;
11893;SDS011;6006;49.696;8.662;2023-11-21T02:55:16;2.63;;;1.80;;
11893;SDS011;6006;49.696;8.662;2023-11-21T02:57:44;2.97;;;1.57;;
11893;SDS011;6006;49.696;8.662;2023-11-21T03:00:11;2.33;;;2.13;;
11893;SDS011;6006;49.696;8.662;2023-11-21T03:02:40;3.00;;;2.60;;
11893;SDS011;6006;49.696;8.662;2023-11-21T03:05:07;2.47;;;2.00;;
11893;SDS011;6006;49.696;8.662;2023-11-21T03:07:35;2.30;;;1.77;;
11893;SDS011;6006;49.696;8.662;2023-11-21T03:10:02;2.10;;;1.90;;
11893;SDS011;6006;49.696;8.662;2023-11-21T03:12:30;2.83;;;1.57;;
11893;SDS011;6006;49.696;8.662;2023-11-21T03:14:58;3.80;;;2.23;;
11893;SDS011;6006;49.696;8.662;2023-11-21T03:17:26;3.77;;;2.03;;
11893;SDS011;6006;49.696;8.662;2023-11-21T03:19:54;2.10;;;1.90;;
11893;SDS011;6006;49.696;8.662;2023-11-21T03:22:22;1.90;;;1.80;;
11893;SDS011;6006;49.696;8.662;2023-11-21T03:24:49;3.93;;;2.20;;
11893;SDS011;6006;49.696;8.662;2023-11-21T03:27:16;5.77;;;2.13;;
11893;SDS011;6006;49.696;8.662;2023-11-21T03:29:43;3.43;;;2.27;;
11893;SDS011;6006;49.696;8.662;2023-11-21T03:32:13;2.10;;;1.90;;
11893;SDS011;6006;49.696;8.662;2023-11-21T03:34:52;2.33;;;2.00;;
11893;SDS011;6006;49.696;8.662;2023-11-21T03:37:21;4.33;;;1.80;;
11893;SDS011;6006;49.696;8.662;2023-11-21T03:39:48;2.30;;;2.10;;
11893;SDS011;6006;49.696;8.662;2023-11-21T03:42:15;2.50;;;2.30;;
11893;SDS011;6006;49.696;8.662;2023-11-21T03:44:41;2.30;;;2.10;;
11893;SDS011;6006;49.696;8.662;2023-11-21T03:47:08;3.13;;;2.37;;
11893;SDS011;6006;49.696;8.662;2023-11-21T03:49:37;4.03;;;2.23;;
11893;SDS011;6006;49.696;8.662;2023-11-21T03:52:04;3.67;;;1.90;;
11893;SDS011;6006;49.696;8.662;2023-11-21T03:54:32;3.27;;;2.20;;
11893;SDS011;6006;49.696;8.662;2023-11-21T03:57:00;2.90;;;2.33;;
11893;SDS011;6006;49.696;8.662;2023-11-21T03:59:27;3.17;;;2.37;;
11893;SDS011;6006;49.696;8.662;2023-11-21T04:01:55;3.03;;;2.40;;
11893;SDS011;6006;49.696;8.662;2023-11-21T04:04:22;4.40;;;2.20;;
11893;SDS011;6006;49.696;8.662;2023-11-21T04:06:50;2.27;;;2.07;;
11893;SDS011;6006;49.696;8.662;2023-11-21T04:09:18;3.80;;;2.53;;
11893;SDS011;6006;49.696;8.662;2023-11-21T04:11:45;2.93;;;2.03;;
11893;SDS011;6006;49.696;8.662;2023-11-21T04:14:12;2.70;;;2.50;;
11893;SDS011;6006;49.696;8.662;2023-11-21T04:16:40;3.30;;;2.60;;
11893;SDS011;6006;49.696;8.662;2023-11-21T04:19:07;3.13;;;2.33;;
11893;SDS011;6006;49.696;8.662;2023-11-21T04:21:35;2.57;;;2.37;;
11893;SDS011;6006;49.696;8.662;2023-11-21T04:24:04;2.83;;;2.60;;
11893;SDS011;6006;49.696;8.662;2023-11-21T04:26:31;3.43;;;2.70;;
11893;SDS011;6006;49.696;8.662;2023-11-21T04:28:58;3.10;;;2.40;;
11893;SDS011;6006;49.696;8.662;2023-11-21T04:31:25;4.30;;;2.77;;
11893;SDS011;6006;49.696;8.662;2023-11-21T04:33:52;2.90;;;2.10;;
11893;SDS011;6006;49.696;8.662;2023-11-21T04:36:19;2.87;;;2.67;;
11893;SDS011;6006;49.696;8.662;2023-11-21T04:38:45;3.93;;;2.80;;
11893;SDS011;6006;49.696;8.662;2023-11-21T04:41:14;3.83;;;2.67;;
11893;SDS011;6006;49.696;8.662;2023-11-21T04:43:41;3.33;;;3.03;;
11893;SDS011;6006;49.696;8.662;2023-11-21T04:46:08;4.47;;;2.80;;
11893;SDS011;6006;49.696;8.662;2023-11-21T04:48:35;3.93;;;2.80;;
11893;SDS011;6006;49.696;8.662;2023-11-21T04:51:02;3.70;;;2.70;;
11893;SDS011;6006;49.696;8.662;2023-11-21T04:53:30;3.87;;;2.67;;
11893;SDS011;6006;49.696;8.662;2023-11-21T04:55:57;4.10;;;2.43;;
11893;SDS011;6006;49.696;8.662;2023-11-21T04:58:25;5.63;;;2.93;;
11893;SDS011;6006;49.696;8.662;2023-11-21T05:00:52;4.30;;;3.13;;
11893;SDS011;6006;49.696;8.662;2023-11-21T05:03:19;3.97;;;3.20;;
11893;SDS011;6006;49.696;8.662;2023-11-21T05:05:48;3.47;;;2.37;;
11893;SDS011;6006;49.696;8.662;2023-11-21T05:08:15;4.83;;;2.50;;
11893;SDS011;6006;49.696;8.662;2023-11-21T05:10:44;4.60;;;2.67;;
11893;SDS011;6006;49.696;8.662;2023-11-21T05:13:10;3.07;;;2.43;;
11893;SDS011;6006;49.696;8.662;2023-11-21T05:15:39;2.73;;;2.50;;
11893;SDS011;6006;49.696;8.662;2023-11-21T05:18:06;3.63;;;3.20;;
11893;SDS011;6006;49.696;8.662;2023-11-21T05:20:33;4.07;;;2.77;;
11893;SDS011;6006;49.696;8.662;2023-11-21T05:23:00;3.37;;;2.57;;
11893;SDS011;6006;49.696;8.662;2023-11-21T05:25:27;3.80;;;2.13;;
11893;SDS011;6006;49.696;8.662;2023-11-21T05:27:53;3.20;;;2.90;;
11893;SDS011;6006;49.696;8.662;2023-11-21T05:30:21;2.57;;;2.37;;
11893;SDS011;6006;49.696;8.662;2023-11-21T05:32:49;2.90;;;2.30;;
11893;SDS011;6006;49.696;8.662;2023-11-21T05:35:16;2.77;;;2.50;;
11893;SDS011;6006;49.696;8.662;2023-11-21T05:37:43;3.57;;;2.70;;
11893;SDS011;6006;49.696;8.662;2023-11-21T05:40:11;3.10;;;2.43;;
11893;SDS011;6006;49.696;8.662;2023-11-21T05:42:38;4.77;;;2.83;;
11893;SDS011;6006;49.696;8.662;2023-11-21T05:45:06;3.07;;;2.77;;
11893;SDS011;6006;49.696;8.662;2023-11-21T05:47:36;2.50;;;2.30;;
11893;SDS011;6006;49.696;8.662;2023-11-21T05:50:06;4.50;;;3.10;;
11893;SDS011;6006;49.696;8.662;2023-11-21T05:52:37;5.10;;;2.80;;
11893;SDS011;6006;49.696;8.662;2023-11-21T05:55:04;3.10;;;2.80;;
11893;SDS011;6006;49.696;8.662;2023-11-21T05:57:33;3.57;;;3.20;;
11893;SDS011;6006;49.696;8.662;2023-11-21T06:00:02;2.70;;;2.37;;
11893;SDS011;6006;49.696;8.662;2023-11-21T06:02:36;3.27;;;2.80;;
11893;SDS011;6006;49.696;8.662;2023-11-21T06:05:03;3.00;;;2.67;;
11893;SDS011;6006;49.696;8.662;2023-11-21T06:07:32;3.87;;;3.00;;
11893;SDS011;6006;49.696;8.662;2023-11-21T06:09:59;4.40;;;2.73;;
11893;SDS011;6006;49.696;8.662;2023-11-21T06:12:27;4.13;;;2.87;;
11893;SDS011;6006;49.696;8.662;2023-11-21T06:14:55;5.43;;;3.37;;
11893;SDS011;6006;49.696;8.662;2023-11-21T06:17:21;3.70;;;3.17;;
11893;SDS011;6006;49.696;8.662;2023-11-21T06:19:49;3.90;;;2.67;;
11893;SDS011;6006;49.696;8.662;2023-11-21T06:22:19;4.70;;;3.10;;
11893;SDS011;6006;49.696;8.662;2023-11-21T06:24:46;4.43;;;3.67;;
11893;SDS011;6006;49.696;8.662;2023-11-21T06:27:13;4.23;;;3.20;;
11893;SDS011;6006;49.696;8.662;2023-11-21T06:29:41;3.93;;;3.03;;
11893;SDS011;6006;49.696;8.662;2023-11-21T06:32:08;3.93;;;3.40;;
11893;SDS011;6006;49.696;8.662;2023-11-21T06:34:35;3.13;;;2.83;;
11893;SDS011;6006;49.696;8.662;2023-11-21T06:37:02;4.87;;;3.20;;
11893;SDS011;6006;49.696;8.662;2023-11-21T06:39:30;3.83;;;2.80;;
11893;SDS011;6006;49.696;8.662;2023-11-21T06:41:57;3.83;;;3.13;;
11893;SDS011;6006;49.696;8.662;2023-11-21T06:44:25;3.67;;;3.30;;
11893;SDS011;6006;49.696;8.662;2023-11-21T06:46:52;3.37;;;3.07;;
11893;SDS011;6006;49.696;8.662;2023-11-21T06:49:19;4.83;;;3.33;;
11893;SDS011;6006;49.696;8.662;2023-11-21T06:51:46;4.77;;;3.00;;
11893;SDS011;6006;49.696;8.662;2023-11-21T06:54:13;4.20;;;3.00;;
11893;SDS011;6006;49.696;8.662;2023-11-21T06:56:41;4.23;;;3.47;;
11893;SDS011;6006;49.696;8.662;2023-11-21T06:59:08;4.60;;;3.63;;
11893;SDS011;6006;49.696;8.662;2023-11-21T07:01:35;6.33;;;4.03;;
11893;SDS011;6006;49.696;8.662;2023-11-21T07:04:04;4.80;;;3.67;;
11893;SDS011;6006;49.696;8.662;2023-11-21T07:06:31;4.00;;;3.07;;
11893;SDS011;6006;49.696;8.662;2023-11-21T07:08:58;4.20;;;3.03;;
11893;SDS011;6006;49.696;8.662;2023-11-21T07:11:26;3.60;;;2.83;;
11893;SDS011;6006;49.696;8.662;2023-11-21T07:13:54;2.73;;;2.40;;
11893;SDS011;6006;49.696;8.662;2023-11-21T07:16:21;2.87;;;2.03;;
11893;SDS011;6006;49.696;8.662;2023-11-21T07:18:49;3.13;;;1.93;;
11893;SDS011;6006;49.696;8.662;2023-11-21T07:21:15;1.93;;;1.70;;
11893;SDS011;6006;49.696;8.662;2023-11-21T07:23:42;1.77;;;1.50;;
11893;SDS011;6006;49.696;8.662;2023-11-21T07:26:09;1.40;;;1.30;;
11893;SDS011;6006;49.696;8.662;2023-11-21T07:28:36;1.00;;;1.00;;
11893;SDS011;6006;49.696;8.662;2023-11-21T07:31:05;2.43;;;1.70;;
11893;SDS011;6006;49.696;8.662;2023-11-21T07:33:32;1.07;;;0.97;;
11893;SDS011;6006;49.696;8.662;2023-11-21T07:35:58;1.17;;;1.10;;
11893;SDS011;6006;49.696;8.662;2023-11-21T07:38:25;1.00;;;1.00;;
11893;SDS011;6006;49.696;8.662;2023-11-21T07:40:53;1.20;;;0.97;;
11893;SDS011;6006;49.696;8.662;2023-11-21T07:43:20;0.70;;;0.70;;
11893;SDS011;6006;49.696;8.662;2023-11-21T07:45:47;0.67;;;0.67;;
11893;SDS011;6006;49.696;8.662;2023-11-21T07:48:15;1.63;;;1.40;;
11893;SDS011;6006;49.696;8.662;2023-11-21T07:50:42;1.00;;;1.00;;
11893;SDS011;6006;49.696;8.662;2023-11-21T07:53:09;1.40;;;1.10;;
11893;SDS011;6006;49.696;8.662;2023-11-21T07:55:36;0.77;;;0.67;;
11893;SDS011;6006;49.696;8.662;2023-11-21T07:58:03;1.20;;;0.93;;
11893;SDS011;6006;49.696;8.662;2023-11-21T08:00:30;1.83;;;0.60;;
11893;SDS011;6006;49.696;8.662;2023-11-21T08:02:56;0.50;;;0.50;;
11893;SDS011;6006;49.696;8.662;2023-11-21T08:05:25;1.03;;;0.93;;
11893;SDS011;6006;49.696;8.662;2023-11-21T08:10:37;1.37;;;1.00;;
11893;SDS011;6006;49.696;8.662;2023-11-21T08:13:04;1.80;;;0.80;;
11893;SDS011;6006;49.696;8.662;2023-11-21T08:15:34;0.77;;;0.77;;
11893;SDS011;6006;49.696;8.662;2023-11-21T08:18:02;1.37;;;1.07;;
11893;SDS011;6006;49.696;8.662;2023-11-21T08:20:31;1.00;;;1.00;;
11893;SDS011;6006;49.696;8.662;2023-11-21T08:22:57;2.20;;;1.53;;
11893;SDS011;6006;49.696;8.662;2023-11-21T08:25:24;2.43;;;1.33;;
11893;SDS011;6006;49.696;8.662;2023-11-21T08:27:58;1.97;;;1.57;;
11893;SDS011;6006;49.696;8.662;2023-11-21T08:30:25;2.63;;;1.83;;
11893;SDS011;6006;49.696;8.662;2023-11-21T08:32:55;1.50;;;1.37;;
11893;SDS011;6006;49.696;8.662;2023-11-21T08:35:23;1.77;;;1.43;;
11893;SDS011;6006;49.696;8.662;2023-11-21T08:37:52;1.33;;;1.23;;
11893;SDS011;6006;49.696;8.662;2023-11-21T08:40:19;1.67;;;1.53;;
11893;SDS011;6006;49.696;8.662;2023-11-21T08:42:47;1.50;;;1.20;;
11893;SDS011;6006;49.696;8.662;2023-11-21T08:45:14;1.70;;;1.50;;
11893;SDS011;6006;49.696;8.662;2023-11-21T08:47:42;1.40;;;1.37;;
11893;SDS011;6006;49.696;8.662;2023-11-21T08:50:10;2.00;;;1.77;;
11893;SDS011;6006;49.696;8.662;2023-11-21T08:52:38;1.37;;;1.23;;
11893;SDS011;6006;49.696;8.662;2023-11-21T08:55:07;1.37;;;1.27;;
11893;SDS011;6006;49.696;8.662;2023-11-21T08:57:34;1.70;;;1.40;;
11893;SDS011;6006;49.696;8.662;2023-11-21T09:00:01;2.43;;;1.47;;
11893;SDS011;6006;49.696;8.662;2023-11-21T09:02:30;1.10;;;1.00;;
11893;SDS011;6006;49.696;8.662;2023-11-21T09:04:58;3.13;;;1.57;;
11893;SDS011;6006;49.696;8.662;2023-11-21T09:07:28;1.97;;;1.60;;
11893;SDS011;6006;49.696;8.662;2023-11-21T09:09:55;1.63;;;1.53;;
11893;SDS011;6006;49.696;8.662;2023-11-21T09:12:23;1.60;;;1.50;;
11893;SDS011;6006;49.696;8.662;2023-11-21T09:14:51;2.57;;;1.50;;
11893;SDS011;6006;49.696;8.662;2023-11-21T09:17:18;1.57;;;1.47;;
11893;SDS011;6006;49.696;8.662;2023-11-21T09:19:44;1.83;;;1.73;;
11893;SDS011;6006;49.696;8.662;2023-11-21T09:22:15;1.57;;;1.47;;
11893;SDS011;6006;49.696;8.662;2023-11-21T09:24:42;3.10;;;2.20;;
11893;SDS011;6006;49.696;8.662;2023-11-21T09:27:09;2.80;;;2.33;;
11893;SDS011;6006;49.696;8.662;2023-11-21T09:29:37;3.57;;;2.47;;
11893;SDS011;6006;49.696;8.662;2023-11-21T09:32:04;2.37;;;1.80;;
11893;SDS011;6006;49.696;8.662;2023-11-21T09:34:33;2.63;;;1.97;;
11893;SDS011;6006;49.696;8.662;2023-11-21T09:37:03;2.70;;;1.90;;
11893;SDS011;6006;49.696;8.662;2023-11-21T09:39:31;2.77;;;1.47;;
11893;SDS011;6006;49.696;8.662;2023-11-21T09:41:59;1.53;;;1.43;;
11893;SDS011;6006;49.696;8.662;2023-11-21T09:44:32;1.57;;;1.47;;
11893;SDS011;6006;49.696;8.662;2023-11-21T09:47:03;1.83;;;1.13;;
11893;SDS011;6006;49.696;8.662;2023-11-21T09:49:35;1.17;;;1.10;;
11893;SDS011;6006;49.696;8.662;2023-11-21T09:52:03;1.30;;;1.20;;
11893;SDS011;6006;49.696;8.662;2023-11-21T09:54:33;1.53;;;1.40;;
11893;SDS011;6006;49.696;8.662;2023-11-21T09:57:01;1.40;;;1.30;;
11893;SDS011;6006;49.696;8.662;2023-11-21T09:59:30;1.17;;;1.00;;
11893;SDS011;6006;49.696;8.662;2023-11-21T10:01:58;2.13;;;1.60;;
11893;SDS011;6006;49.696;8.662;2023-11-21T10:04:27;1.30;;;1.20;;
11893;SDS011;6006;49.696;8.662;2023-11-21T10:06:54;1.97;;;1.53;;
11893;SDS011;6006;49.696;8.662;2023-11-21T10:09:21;2.90;;;1.73;;
11893;SDS011;6006;49.696;8.662;2023-11-21T10:11:52;1.53;;;1.33;;
11893;SDS011;6006;49.696;8.662;2023-11-21T10:14:19;4.63;;;1.40;;
11893;SDS011;6006;49.696;8.662;2023-11-21T10:16:54;1.30;;;1.10;;
11893;SDS011;6006;49.696;8.662;2023-11-21T10:19:22;1.60;;;1.50;;
11893;SDS011;6006;49.696;8.662;2023-11-21T10:21:51;2.10;;;1.13;;
11893;SDS011;6006;49.696;8.662;2023-11-21T10:24:19;0.83;;;0.80;;
11893;SDS011;6006;49.696;8.662;2023-11-21T10:26:47;1.20;;;1.10;;
11893;SDS011;6006;49.696;8.662;2023-11-21T10:29:16;1.23;;;0.83;;
11893;SDS011;6006;49.696;8.662;2023-11-21T10:31:43;0.87;;;0.87;;
11893;SDS011;6006;49.696;8.662;2023-11-21T10:34:14;0.80;;;0.80;;
11893;SDS011;6006;49.696;8.662;2023-11-21T10:36:41;0.93;;;0.87;;
11893;SDS011;6006;49.696;8.662;2023-11-21T10:39:10;0.80;;;0.80;;
11893;SDS011;6006;49.696;8.662;2023-11-21T10:41:44;1.13;;;1.03;;
11893;SDS011;6006;49.696;8.662;2023-11-21T10:44:13;0.70;;;0.70;;
11893;SDS011;6006;49.696;8.662;2023-11-21T10:46:45;0.77;;;0.60;;
11893;SDS011;6006;49.696;8.662;2023-11-21T10:49:15;0.90;;;0.87;;
11893;SDS011;6006;49.696;8.662;2023-11-21T10:51:43;4.50;;;0.90;;
11893;SDS011;6006;49.696;8.662;2023-11-21T10:54:12;0.70;;;0.70;;
11893;SDS011;6006;49.696;8.662;2023-11-21T10:56:39;1.40;;;0.80;;
11893;SDS011;6006;49.696;8.662;2023-11-21T10:59:08;0.60;;;0.60;;
11893;SDS011;6006;49.696;8.662;2023-11-21T11:01:39;1.63;;;1.00;;
11893;SDS011;6006;49.696;8.662;2023-11-21T11:04:08;2.37;;;1.80;;
11893;SDS011;6006;49.696;8.662;2023-11-21T11:06:41;2.27;;;1.20;;
11893;SDS011;6006;49.696;8.662;2023-11-21T11:09:10;1.80;;;0.97;;
11893;SDS011;6006;49.696;8.662;2023-11-21T11:11:41;1.40;;;1.30;;
11893;SDS011;6006;49.696;8.662;2023-11-21T11:14:10;1.63;;;1.27;;
11893;SDS011;6006;49.696;8.662;2023-11-21T11:16:38;1.10;;;1.10;;
11893;SDS011;6006;49.696;8.662;2023-11-21T11:19:06;1.43;;;1.30;;
11893;SDS011;6006;49.696;8.662;2023-11-21T11:21:36;2.40;;;1.33;;
11893;SDS011;6006;49.696;8.662;2023-11-21T11:24:17;2.10;;;1.90;;
11893;SDS011;6006;49.696;8.662;2023-11-21T11:27:01;1.27;;;1.17;;
11893;SDS011;6006;49.696;8.662;2023-11-21T11:29:39;1.10;;;1.10;;
11893;SDS011;6006;49.696;8.662;2023-11-21T11:32:13;0.97;;;0.97;;
11893;SDS011;6006;49.696;8.662;2023-11-21T11:34:46;1.00;;;1.00;;
11893;SDS011;6006;49.696;8.662;2023-11-21T11:40:18;0.63;;;0.63;;
11893;SDS011;6006;49.696;8.662;2023-11-21T11:42:57;2.20;;;1.23;;
11893;SDS011;6006;49.696;8.662;2023-11-21T11:45:31;0.90;;;0.90;;
11893;SDS011;6006;49.696;8.662;2023-11-21T11:48:00;1.13;;;0.83;;
11893;SDS011;6006;49.696;8.662;2023-11-21T11:50:28;0.90;;;0.90;;
11893;SDS011;6006;49.696;8.662;2023-11-21T11:52:57;1.17;;;0.90;;
11893;SDS011;6006;49.696;8.662;2023-11-21T11:55:40;1.37;;;1.27;;
11893;SDS011;6006;49.696;8.662;2023-11-21T11:58:07;1.47;;;1.17;;
11893;SDS011;6006;49.696;8.662;2023-11-21T12:00:35;1.37;;;1.13;;
11893;SDS011;6006;49.696;8.662;2023-11-21T12:03:05;0.93;;;0.93;;
11893;SDS011;6006;49.696;8.662;2023-11-21T12:05:33;1.53;;;1.40;;
11893;SDS011;6006;49.696;8.662;2023-11-21T12:08:04;1.20;;;1.10;;
11893;SDS011;6006;49.696;8.662;2023-11-21T12:10:33;1.40;;;0.97;;
11893;SDS011;6006;49.696;8.662;2023-11-21T12:13:03;0.73;;;0.73;;
11893;SDS011;6006;49.696;8.662;2023-11-21T12:15:33;1.63;;;1.10;;
11893;SDS011;6006;49.696;8.662;2023-11-21T12:20:56;1.10;;;1.00;;
11893;SDS011;6006;49.696;8.662;2023-11-21T12:23:22;2.33;;;1.13;;
11893;SDS011;6006;49.696;8.662;2023-11-21T12:25:50;0.70;;;0.70;;
11893;SDS011;6006;49.696;8.662;2023-11-21T12:28:18;1.00;;;0.90;;
11893;SDS011;6006;49.696;8.662;2023-11-21T12:30:48;0.53;;;0.53;;
11893;SDS011;6006;49.696;8.662;2023-11-21T12:33:15;2.20;;;0.70;;
11893;SDS011;6006;49.696;8.662;2023-11-21T12:35:42;2.60;;;0.80;;
11893;SDS011;6006;49.696;8.662;2023-11-21T12:38:09;0.70;;;0.70;;
11893;SDS011;6006;49.696;8.662;2023-11-21T12:40:36;3.20;;;0.83;;
11893;SDS011;6006;49.696;8.662;2023-11-21T12:43:03;0.77;;;0.77;;
11893;SDS011;6006;49.696;8.662;2023-11-21T12:45:31;2.37;;;1.00;;
11893;SDS011;6006;49.696;8.662;2023-11-21T12:47:59;0.80;;;0.80;;
11893;SDS011;6006;49.696;8.662;2023-11-21T12:50:32;1.60;;;0.97;;
11893;SDS011;6006;49.696;8.662;2023-11-21T12:53:01;0.80;;;0.77;;
11893;SDS011;6006;49.696;8.662;2023-11-21T12:55:30;2.00;;;1.13;;
11893;SDS011;6006;49.696;8.662;2023-11-21T12:57:58;1.33;;;1.07;;
11893;SDS011;6006;49.696;8.662;2023-11-21T13:00:35;1.00;;;0.90;;
11893;SDS011;6006;49.696;8.662;2023-11-21T13:03:03;2.20;;;1.10;;
11893;SDS011;6006;49.696;8.662;2023-11-21T13:05:33;2.00;;;1.40;;
11893;SDS011;6006;49.696;8.662;2023-11-21T13:08:04;2.00;;;1.33;;
11893;SDS011;6006;49.696;8.662;2023-11-21T13:10:35;2.70;;;1.43;;
11893;SDS011;6006;49.696;8.662;2023-11-21T13:13:04;1.47;;;1.20;;
11893;SDS011;6006;49.696;8.662;2023-11-21T13:15:38;1.03;;;0.97;;
11893;SDS011;6006;49.696;8.662;2023-11-21T13:18:05;3.33;;;1.10;;
11893;SDS011;6006;49.696;8.662;2023-11-21T13:20:34;2.43;;;1.43;;
11893;SDS011;6006;49.696;8.662;2023-11-21T13:23:06;1.53;;;1.30;;
11893;SDS011;6006;49.696;8.662;2023-11-21T13:25:37;1.60;;;1.30;;
11893;SDS011;6006;49.696;8.662;2023-11-21T13:28:06;2.30;;;1.33;;
11893;SDS011;6006;49.696;8.662;2023-11-21T13:30:36;3.20;;;1.60;;
11893;SDS011;6006;49.696;8.662;2023-11-21T13:33:05;1.70;;;1.60;;
11893;SDS011;6006;49.696;8.662;2023-11-21T13:35:33;4.20;;;1.50;;
11893;SDS011;6006;49.696;8.662;2023-11-21T13:38:03;3.87;;;2.13;;
11893;SDS011;6006;49.696;8.662;2023-11-21T13:40:32;3.43;;;1.70;;
11893;SDS011;6006;49.696;8.662;2023-11-21T13:43:03;2.87;;;1.53;;
11893;SDS011;6006;49.696;8.662;2023-11-21T13:45:30;7.53;;;2.20;;
11893;SDS011;6006;49.696;8.662;2023-11-21T13:47:58;1.60;;;1.50;;
11893;SDS011;6006;49.696;8.662;2023-11-21T13:50:25;2.50;;;1.53;;
11893;SDS011;6006;49.696;8.662;2023-11-21T13:52:57;3.30;;;1.50;;
11893;SDS011;6006;49.696;8.662;2023-11-21T13:55:28;2.50;;;1.30;;
11893;SDS011;6006;49.696;8.662;2023-11-21T13:57:55;2.17;;;1.47;;
11893;SDS011;6006;49.696;8.662;2023-11-21T14:00:21;1.73;;;1.53;;
11893;SDS011;6006;49.696;8.662;2023-11-21T14:03:11;1.53;;;1.43;;
11893;SDS011;6006;49.696;8.662;2023-11-21T14:05:45;1.27;;;1.13;;
11893;SDS011;6006;49.696;8.662;2023-11-21T14:08:16;1.83;;;1.50;;
11893;SDS011;6006;49.696;8.662;2023-11-21T14:10:46;1.47;;;1.37;;
11893;SDS011;6006;49.696;8.662;2023-11-21T14:13:16;3.53;;;1.70;;
11893;SDS011;6006;49.696;8.662;2023-11-21T14:15:43;2.43;;;1.70;;
11893;SDS011;6006;49.696;8.662;2023-11-21T14:18:15;1.40;;;1.30;;
11893;SDS011;6006;49.696;8.662;2023-11-21T14:20:44;1.83;;;1.47;;
11893;SDS011;6006;49.696;8.662;2023-11-21T14:23:11;3.70;;;2.13;;
11893;SDS011;6006;49.696;8.662;2023-11-21T14:25:37;2.17;;;1.77;;
11893;SDS011;6006;49.696;8.662;2023-11-21T14:28:07;3.27;;;1.87;;
11893;SDS011;6006;49.696;8.662;2023-11-21T14:30:36;4.33;;;1.93;;
11893;SDS011;6006;49.696;8.662;2023-11-21T14:33:04;5.83;;;2.10;;
11893;SDS011;6006;49.696;8.662;2023-11-21T14:35:34;2.60;;;1.73;;
11893;SDS011;6006;49.696;8.662;2023-11-21T14:38:01;2.33;;;2.03;;
11893;SDS011;6006;49.696;8.662;2023-11-21T14:40:29;2.00;;;1.47;;
11893;SDS011;6006;49.696;8.662;2023-11-21T14:42:58;4.73;;;1.67;;
11893;SDS011;6006;49.696;8.662;2023-11-21T14:45:26;2.07;;;1.87;;
11893;SDS011;6006;49.696;8.662;2023-11-21T14:47:54;4.80;;;1.87;;
11893;SDS011;6006;49.696;8.662;2023-11-21T14:50:30;3.40;;;2.17;;
11893;SDS011;6006;49.696;8.662;2023-11-21T14:53:13;4.07;;;1.90;;
11893;SDS011;6006;49.696;8.662;2023-11-21T14:55:40;3.33;;;1.73;;
11893;SDS011;6006;49.696;8.662;2023-11-21T14:58:19;3.93;;;2.13;;
11893;SDS011;6006;49.696;8.662;2023-11-21T15:00:52;7.33;;;5.97;;
11893;SDS011;6006;49.696;8.662;2023-11-21T15:03:24;5.77;;;3.40;;
11893;SDS011;6006;49.696;8.662;2023-11-21T15:06:08;3.90;;;2.40;;
11893;SDS011;6006;49.696;8.662;2023-11-21T15:08:49;2.87;;;1.93;;
11893;SDS011;6006;49.696;8.662;2023-11-21T15:11:24;2.67;;;2.20;;
11893;SDS011;6006;49.696;8.662;2023-11-21T15:13:55;4.30;;;2.87;;
11893;SDS011;6006;49.696;8.662;2023-11-21T15:16:23;1.83;;;1.70;;